sensor_id;sensor_type;location;lat;lon;timestamp;pressure;altitude;pressure_sealevel;temperature;humidity
15646;BME280;7922;43.622;1.476;2023-11-19T00:01:21;100918.22;;;8.06;100.00
15646;BME280;7922;43.622;1.476;2023-11-19T00:03:46;100914.78;;;8.03;100.00
15646;BME280;7922;43.622;1.476;2023-11-19T00:06:11;100904.31;;;7.96;100.00
15646;BME280;7922;43.622;1.476;2023-11-19T00:08:36;100898.34;;;7.85;100.00
15646;BME280;7922;43.622;1.476;2023-11-19T00:11:05;100895.59;;;7.91;100.00
15646;BME280;7922;43.622;1.476;2023-11-19T00:13:30;100892.97;;;7.90;100.00
15646;BME280;7922;43.622;1.476;2023-11-19T00:15:55;100897.38;;;7.89;100.00
15646;BME280;7922;43.622;1.476;2023-11-19T00:18:20;100879.06;;;7.82;100.00
15646;BME280;7922;43.622;1.476;2023-11-19T00:20:46;100842.53;;;7.57;100.00
15646;BME280;7922;43.622;1.476;2023-11-19T00:23:14;100881.81;;;7.74;100.00
15646;BME280;7922;43.622;1.476;2023-11-19T00:25:39;100887.97;;;7.75;100.00
15646;BME280;7922;43.622;1.476;2023-11-19T00:28:04;100881.84;;;7.72;100.00
15646;BME280;7922;43.622;1.476;2023-11-19T00:30:30;100906.22;;;7.88;100.00
15646;BME280;7922;43.622;1.476;2023-11-19T00:32:55;100888.88;;;7.72;100.00
15646;BME280;7922;43.622;1.476;2023-11-19T00:35:20;100885.41;;;7.68;100.00
15646;BME280;7922;43.622;1.476;2023-11-19T00:37:45;100877.44;;;7.73;100.00
15646;BME280;7922;43.622;1.476;2023-11-19T00:40:11;100880.06;;;7.75;100.00
15646;BME280;7922;43.622;1.476;2023-11-19T00:42:36;100887.91;;;7.78;100.00
15646;BME280;7922;43.622;1.476;2023-11-19T00:45:04;100881.84;;;7.72;100.00
15646;BME280;7922;43.622;1.476;2023-11-19T00:47:30;100866.09;;;7.68;100.00
15646;BME280;7922;43.622;1.476;2023-11-19T00:49:55;100879.16;;;7.77;100.00
15646;BME280;7922;43.622;1.476;2023-11-19T00:52:20;100856.50;;;7.64;100.00
15646;BME280;7922;43.622;1.476;2023-11-19T00:54:45;100858.31;;;7.59;100.00
15646;BME280;7922;43.622;1.476;2023-11-19T00:57:11;100866.22;;;7.59;100.00
15646;BME280;7922;43.622;1.476;2023-11-19T00:59:36;100852.38;;;7.46;100.00
15646;BME280;7922;43.622;1.476;2023-11-19T01:02:01;100868.78;;;7.65;100.00
15646;BME280;7922;43.622;1.476;2023-11-19T01:04:27;100821.78;;;7.36;100.00
15646;BME280;7922;43.622;1.476;2023-11-19T01:06:52;100870.59;;;7.61;100.00
15646;BME280;7922;43.622;1.476;2023-11-19T01:09:17;100865.41;;;7.55;100.00
15646;BME280;7922;43.622;1.476;2023-11-19T01:11:42;100878.47;;;7.64;100.00
15646;BME280;7922;43.622;1.476;2023-11-19T01:14:08;100876.72;;;7.62;100.00
15646;BME280;7922;43.622;1.476;2023-11-19T01:16:33;100849.78;;;7.44;100.00
15646;BME280;7922;43.622;1.476;2023-11-19T01:18:58;100887.22;;;7.65;100.00
15646;BME280;7922;43.622;1.476;2023-11-19T01:21:23;100888.31;;;7.53;100.00
15646;BME280;7922;43.622;1.476;2023-11-19T01:23:49;100881.38;;;7.46;100.00
15646;BME280;7922;43.622;1.476;2023-11-19T01:26:14;100871.78;;;7.40;100.00
15646;BME280;7922;43.622;1.476;2023-11-19T01:28:40;100888.44;;;7.45;100.00
15646;BME280;7922;43.622;1.476;2023-11-19T01:31:07;100895.34;;;7.51;100.00
15646;BME280;7922;43.622;1.476;2023-11-19T01:33:33;100884.91;;;7.45;100.00
15646;BME280;7922;43.622;1.476;2023-11-19T01:35:58;100899.75;;;7.52;100.00
15646;BME280;7922;43.622;1.476;2023-11-19T01:38:23;100842.22;;;7.23;100.00
15646;BME280;7922;43.622;1.476;2023-11-19T01:40:49;100870.13;;;7.33;100.00
15646;BME280;7922;43.622;1.476;2023-11-19T01:43:39;100883.19;;;7.42;100.00
15646;BME280;7922;43.622;1.476;2023-11-19T01:46:05;100868.41;;;7.34;100.00
15646;BME280;7922;43.622;1.476;2023-11-19T01:48:32;100906.84;;;7.47;100.00
15646;BME280;7922;43.622;1.476;2023-11-19T01:50:59;100891.09;;;7.42;100.00
15646;BME280;7922;43.622;1.476;2023-11-19T01:53:25;100884.97;;;7.42;100.00
15646;BME280;7922;43.622;1.476;2023-11-19T01:55:50;100898.09;;;7.45;100.00
15646;BME280;7922;43.622;1.476;2023-11-19T01:58:16;100894.69;;;7.38;100.00
15646;BME280;7922;43.622;1.476;2023-11-19T02:00:44;100885.09;;;7.33;100.00
15646;BME280;7922;43.622;1.476;2023-11-19T02:03:10;100896.41;;;7.41;100.00
15646;BME280;7922;43.622;1.476;2023-11-19T02:05:36;100893.00;;;7.34;100.00
15646;BME280;7922;43.622;1.476;2023-11-19T02:08:02;100886.03;;;7.29;100.00
15646;BME280;7922;43.622;1.476;2023-11-19T02:10:27;100894.75;;;7.34;100.00
15646;BME280;7922;43.622;1.476;2023-11-19T02:12:53;100830.19;;;7.04;100.00
15646;BME280;7922;43.622;1.476;2023-11-19T02:15:18;100873.84;;;7.21;100.00
15646;BME280;7922;43.622;1.476;2023-11-19T02:17:43;100885.25;;;7.22;100.00
15646;BME280;7922;43.622;1.476;2023-11-19T02:20:09;100887.88;;;7.23;100.00
15646;BME280;7922;43.622;1.476;2023-11-19T02:22:34;100881.81;;;7.17;100.00
15646;BME280;7922;43.622;1.476;2023-11-19T02:25:04;100887.88;;;7.22;100.00
15646;BME280;7922;43.622;1.476;2023-11-19T02:30:15;100900.13;;;7.24;100.00
15646;BME280;7922;43.622;1.476;2023-11-19T02:32:41;100889.72;;;7.17;100.00
15646;BME280;7922;43.622;1.476;2023-11-19T02:35:07;100894.13;;;7.15;100.00
15646;BME280;7922;43.622;1.476;2023-11-19T02:37:32;100882.81;;;7.07;100.00
15646;BME280;7922;43.622;1.476;2023-11-19T02:39:57;100882.84;;;7.05;100.00
15646;BME280;7922;43.622;1.476;2023-11-19T02:42:23;100889.75;;;7.14;100.00
15646;BME280;7922;43.622;1.476;2023-11-19T02:44:48;100874.88;;;7.10;100.00
15646;BME280;7922;43.622;1.476;2023-11-19T02:47:13;100889.63;;;7.23;100.00
15646;BME280;7922;43.622;1.476;2023-11-19T02:49:39;100882.72;;;7.14;100.00
15646;BME280;7922;43.622;1.476;2023-11-19T02:52:04;100877.47;;;7.11;100.00
15646;BME280;7922;43.622;1.476;2023-11-19T02:54:30;100870.47;;;7.10;100.00
15646;BME280;7922;43.622;1.476;2023-11-19T02:56:55;100836.66;;;6.78;100.00
15646;BME280;7922;43.622;1.476;2023-11-19T02:59:21;100886.53;;;6.92;100.00
15646;BME280;7922;43.622;1.476;2023-11-19T03:01:46;100882.06;;;6.97;100.00
15646;BME280;7922;43.622;1.476;2023-11-19T03:04:11;100849.81;;;6.81;100.00
15646;BME280;7922;43.622;1.476;2023-11-19T03:06:36;100878.59;;;6.95;100.00
15646;BME280;7922;43.622;1.476;2023-11-19T03:09:02;100879.53;;;6.91;100.00
15646;BME280;7922;43.622;1.476;2023-11-19T03:11:27;100868.13;;;6.89;100.00
15646;BME280;7922;43.622;1.476;2023-11-19T03:13:52;100887.28;;;7.02;100.00
15646;BME280;7922;43.622;1.476;2023-11-19T03:16:17;100862.03;;;6.85;100.00
15646;BME280;7922;43.622;1.476;2023-11-19T03:18:43;100873.34;;;6.93;100.00
15646;BME280;7922;43.622;1.476;2023-11-19T03:21:08;100884.66;;;7.02;100.00
15646;BME280;7922;43.622;1.476;2023-11-19T03:23:34;100866.31;;;6.92;100.00
15646;BME280;7922;43.622;1.476;2023-11-19T03:25:59;100867.19;;;6.93;100.00
15646;BME280;7922;43.622;1.476;2023-11-19T03:28:25;100871.59;;;6.94;100.00
15646;BME280;7922;43.622;1.476;2023-11-19T03:30:50;100869.78;;;6.96;100.00
15646;BME280;7922;43.622;1.476;2023-11-19T03:33:15;100856.81;;;6.84;100.00
15646;BME280;7922;43.622;1.476;2023-11-19T03:35:40;100829.00;;;6.61;100.00
15646;BME280;7922;43.622;1.476;2023-11-19T03:38:06;100864.66;;;6.85;100.00
15646;BME280;7922;43.622;1.476;2023-11-19T03:40:31;100858.56;;;6.82;100.00
15646;BME280;7922;43.622;1.476;2023-11-19T03:42:57;100847.34;;;6.69;100.00
15646;BME280;7922;43.622;1.476;2023-11-19T03:45:22;100834.25;;;6.63;100.00
15646;BME280;7922;43.622;1.476;2023-11-19T03:47:47;100864.84;;;6.71;100.00
15646;BME280;7922;43.622;1.476;2023-11-19T03:50:12;100863.94;;;6.74;100.00
15646;BME280;7922;43.622;1.476;2023-11-19T03:52:38;100864.78;;;6.79;100.00
15646;BME280;7922;43.622;1.476;2023-11-19T03:55:03;100862.97;;;6.83;100.00
15646;BME280;7922;43.622;1.476;2023-11-19T03:57:29;100863.03;;;6.77;100.00
15646;BME280;7922;43.622;1.476;2023-11-19T03:59:54;100843.84;;;6.68;100.00
15646;BME280;7922;43.622;1.476;2023-11-19T04:02:19;100846.44;;;6.70;100.00
15646;BME280;7922;43.622;1.476;2023-11-19T04:04:45;100847.38;;;6.64;100.00
15646;BME280;7922;43.622;1.476;2023-11-19T04:07:10;100843.91;;;6.61;100.00
15646;BME280;7922;43.622;1.476;2023-11-19T04:09:35;100856.19;;;6.60;100.00
15646;BME280;7922;43.622;1.476;2023-11-19T04:12:01;100869.31;;;6.66;100.00
15646;BME280;7922;43.622;1.476;2023-11-19T04:14:26;100871.06;;;6.66;100.00
15646;BME280;7922;43.622;1.476;2023-11-19T04:16:52;100871.06;;;6.64;100.00
15646;BME280;7922;43.622;1.476;2023-11-19T04:19:18;100881.66;;;6.60;100.00
15646;BME280;7922;43.622;1.476;2023-11-19T04:21:44;100831.06;;;6.35;100.00
15646;BME280;7922;43.622;1.476;2023-11-19T04:24:09;100859.84;;;6.50;100.00
15646;BME280;7922;43.622;1.476;2023-11-19T04:26:35;100866.84;;;6.51;100.00
15646;BME280;7922;43.622;1.476;2023-11-19T04:29:00;100832.91;;;6.26;100.00
15646;BME280;7922;43.622;1.476;2023-11-19T04:31:29;100868.66;;;6.46;100.00
15646;BME280;7922;43.622;1.476;2023-11-19T04:33:54;100855.56;;;6.41;100.00
15646;BME280;7922;43.622;1.476;2023-11-19T04:36:20;100873.06;;;6.47;100.00
15646;BME280;7922;43.622;1.476;2023-11-19T04:38:45;100846.78;;;6.41;100.00
15646;BME280;7922;43.622;1.476;2023-11-19T04:41:10;100866.03;;;6.46;100.00
15646;BME280;7922;43.622;1.476;2023-11-19T04:43:36;100866.06;;;6.44;100.00
15646;BME280;7922;43.622;1.476;2023-11-19T04:46:03;100832.03;;;6.24;100.00
15646;BME280;7922;43.622;1.476;2023-11-19T04:48:29;100847.75;;;6.34;100.00
15646;BME280;7922;43.622;1.476;2023-11-19T04:50:54;100860.84;;;6.40;100.00
15646;BME280;7922;43.622;1.476;2023-11-19T04:53:19;100860.00;;;6.36;100.00
15646;BME280;7922;43.622;1.476;2023-11-19T04:55:45;100860.03;;;6.33;100.00
15646;BME280;7922;43.622;1.476;2023-11-19T04:58:10;100878.47;;;6.33;100.00
15646;BME280;7922;43.622;1.476;2023-11-19T05:00:35;100875.06;;;6.22;100.00
15646;BME280;7922;43.622;1.476;2023-11-19T05:03:00;100873.28;;;6.25;100.00
15646;BME280;7922;43.622;1.476;2023-11-19T05:05:26;100866.25;;;6.24;100.00
15646;BME280;7922;43.622;1.476;2023-11-19T05:07:51;100868.84;;;6.27;100.00
15646;BME280;7922;43.622;1.476;2023-11-19T05:10:16;100892.44;;;6.35;100.00
15646;BME280;7922;43.622;1.476;2023-11-19T05:12:42;100892.44;;;6.37;100.00
15646;BME280;7922;43.622;1.476;2023-11-19T05:15:07;100874.19;;;6.21;100.00
15646;BME280;7922;43.622;1.476;2023-11-19T05:17:33;100895.16;;;6.29;100.00
15646;BME280;7922;43.622;1.476;2023-11-19T05:19:58;100871.59;;;6.18;100.00
15646;BME280;7922;43.622;1.476;2023-11-19T05:22:24;100885.47;;;6.31;100.00
15646;BME280;7922;43.622;1.476;2023-11-19T05:24:49;100845.34;;;6.12;100.00
15646;BME280;7922;43.622;1.476;2023-11-19T05:27:14;100888.09;;;6.36;100.00
15646;BME280;7922;43.622;1.476;2023-11-19T05:29:39;100867.22;;;6.16;100.00
15646;BME280;7922;43.622;1.476;2023-11-19T05:32:05;100871.53;;;6.23;100.00
15646;BME280;7922;43.622;1.476;2023-11-19T05:34:30;100905.59;;;6.40;100.00
15646;BME280;7922;43.622;1.476;2023-11-19T05:36:56;100888.13;;;6.33;100.00
15646;BME280;7922;43.622;1.476;2023-11-19T05:39:21;100877.66;;;6.25;100.00
15646;BME280;7922;43.622;1.476;2023-11-19T05:41:46;100867.16;;;6.23;100.00
15646;BME280;7922;43.622;1.476;2023-11-19T05:44:12;100861.88;;;6.23;100.00
15646;BME280;7922;43.622;1.476;2023-11-19T05:46:37;100856.66;;;6.22;100.00
15646;BME280;7922;43.622;1.476;2023-11-19T05:49:02;100820.94;;;5.98;100.00
15646;BME280;7922;43.622;1.476;2023-11-19T05:51:27;100835.81;;;6.00;100.00
15646;BME280;7922;43.622;1.476;2023-11-19T05:53:53;100879.38;;;6.29;100.00
15646;BME280;7922;43.622;1.476;2023-11-19T05:56:18;100874.19;;;6.20;100.00
15646;BME280;7922;43.622;1.476;2023-11-19T05:58:43;100854.13;;;6.11;100.00
15646;BME280;7922;43.622;1.476;2023-11-19T06:01:08;100891.59;;;6.36;100.00
15646;BME280;7922;43.622;1.476;2023-11-19T06:03:34;100872.50;;;6.16;100.00
15646;BME280;7922;43.622;1.476;2023-11-19T06:05:59;100886.50;;;6.21;100.00
15646;BME280;7922;43.622;1.476;2023-11-19T06:08:24;100903.09;;;6.24;100.00
15646;BME280;7922;43.622;1.476;2023-11-19T06:10:49;100904.81;;;6.29;100.00
15646;BME280;7922;43.622;1.476;2023-11-19T06:13:15;100897.84;;;6.23;100.00
15646;BME280;7922;43.622;1.476;2023-11-19T06:15:44;100904.81;;;6.27;100.00
15646;BME280;7922;43.622;1.476;2023-11-19T06:18:10;100870.03;;;5.97;100.00
15646;BME280;7922;43.622;1.476;2023-11-19T06:20:35;100908.38;;;6.23;100.00
15646;BME280;7922;43.622;1.476;2023-11-19T06:23:00;100880.41;;;6.13;100.00
15646;BME280;7922;43.622;1.476;2023-11-19T06:25:26;100894.34;;;6.22;100.00
15646;BME280;7922;43.622;1.476;2023-11-19T06:27:52;100922.38;;;6.26;100.00
15646;BME280;7922;43.622;1.476;2023-11-19T06:30:18;100897.97;;;6.14;100.00
15646;BME280;7922;43.622;1.476;2023-11-19T06:32:43;100931.03;;;6.38;100.00
15646;BME280;7922;43.622;1.476;2023-11-19T06:35:09;100903.16;;;6.17;100.00
15646;BME280;7922;43.622;1.476;2023-11-19T06:37:34;100931.91;;;6.35;100.00
15646;BME280;7922;43.622;1.476;2023-11-19T06:39:59;100927.59;;;6.30;100.00
15646;BME280;7922;43.622;1.476;2023-11-19T06:42:25;100921.44;;;6.32;100.00
15646;BME280;7922;43.622;1.476;2023-11-19T06:44:50;100877.81;;;6.11;100.00
15646;BME280;7922;43.622;1.476;2023-11-19T06:47:15;100889.13;;;6.16;100.00
15646;BME280;7922;43.622;1.476;2023-11-19T06:49:44;100927.53;;;6.37;100.00
15646;BME280;7922;43.622;1.476;2023-11-19T06:52:09;100926.63;;;6.38;100.00
15646;BME280;7922;43.622;1.476;2023-11-19T06:54:34;100926.63;;;6.40;100.00
15646;BME280;7922;43.622;1.476;2023-11-19T06:57:00;100923.22;;;6.30;100.00
15646;BME280;7922;43.622;1.476;2023-11-19T06:59:25;100930.22;;;6.31;100.00
15646;BME280;7922;43.622;1.476;2023-11-19T07:01:50;100904.00;;;6.20;100.00
15646;BME280;7922;43.622;1.476;2023-11-19T07:04:15;100937.06;;;6.46;100.00
15646;BME280;7922;43.622;1.476;2023-11-19T07:06:41;100936.25;;;6.44;100.00
15646;BME280;7922;43.622;1.476;2023-11-19T07:09:07;100930.09;;;6.43;100.00
15646;BME280;7922;43.622;1.476;2023-11-19T07:11:32;100937.94;;;6.48;100.00
15646;BME280;7922;43.622;1.476;2023-11-19T07:13:57;100944.91;;;6.52;100.00
15646;BME280;7922;43.622;1.476;2023-11-19T07:16:23;100929.25;;;6.41;100.00
15646;BME280;7922;43.622;1.476;2023-11-19T07:18:48;100947.56;;;6.52;100.00
15646;BME280;7922;43.622;1.476;2023-11-19T07:21:13;100949.28;;;6.53;100.00
15646;BME280;7922;43.622;1.476;2023-11-19T07:23:39;100926.53;;;6.46;100.00
15646;BME280;7922;43.622;1.476;2023-11-19T07:26:05;100950.97;;;6.62;100.00
15646;BME280;7922;43.622;1.476;2023-11-19T07:28:31;100944.03;;;6.53;100.00
15646;BME280;7922;43.622;1.476;2023-11-19T07:30:56;100957.84;;;6.73;100.00
15646;BME280;7922;43.622;1.476;2023-11-19T07:33:21;100916.81;;;6.56;100.00
15646;BME280;7922;43.622;1.476;2023-11-19T07:35:46;100933.28;;;6.71;100.00
15646;BME280;7922;43.622;1.476;2023-11-19T07:38:12;100918.50;;;6.61;100.00
15646;BME280;7922;43.622;1.476;2023-11-19T07:40:37;100956.78;;;6.91;100.00
15646;BME280;7922;43.622;1.476;2023-11-19T07:43:02;100960.22;;;6.98;100.00
15646;BME280;7922;43.622;1.476;2023-11-19T07:45:28;100967.13;;;7.08;100.00
15646;BME280;7922;43.622;1.476;2023-11-19T07:47:53;100966.19;;;7.11;100.00
15646;BME280;7922;43.622;1.476;2023-11-19T07:50:18;100959.13;;;7.16;100.00
15646;BME280;7922;43.622;1.476;2023-11-19T07:52:43;100965.91;;;7.34;100.00
15646;BME280;7922;43.622;1.476;2023-11-19T07:55:09;100935.38;;;7.17;100.00
15646;BME280;7922;43.622;1.476;2023-11-19T07:57:34;100962.28;;;7.42;100.00
15646;BME280;7922;43.622;1.476;2023-11-19T07:59:59;100957.72;;;7.54;100.00
15646;BME280;7922;43.622;1.476;2023-11-19T08:02:25;100958.50;;;7.60;100.00
15646;BME280;7922;43.622;1.476;2023-11-19T08:04:50;100971.38;;;7.80;100.00
15646;BME280;7922;43.622;1.476;2023-11-19T08:07:15;100966.94;;;7.85;100.00
15646;BME280;7922;43.622;1.476;2023-11-19T08:09:41;100960.72;;;7.88;100.00
15646;BME280;7922;43.622;1.476;2023-11-19T08:12:06;100873.44;;;7.47;100.00
15646;BME280;7922;43.622;1.476;2023-11-19T08:14:31;100963.81;;;8.13;100.00
15646;BME280;7922;43.622;1.476;2023-11-19T08:16:56;100967.19;;;8.23;100.00
15646;BME280;7922;43.622;1.476;2023-11-19T08:19:22;100965.31;;;8.29;100.00
15646;BME280;7922;43.622;1.476;2023-11-19T08:21:47;100975.66;;;8.44;100.00
15646;BME280;7922;43.622;1.476;2023-11-19T08:24:12;100994.72;;;8.60;100.00
15646;BME280;7922;43.622;1.476;2023-11-19T08:26:37;100977.22;;;8.55;100.00
15646;BME280;7922;43.622;1.476;2023-11-19T08:29:03;100983.13;;;8.69;100.00
15646;BME280;7922;43.622;1.476;2023-11-19T08:31:28;100985.53;;;8.81;100.00
15646;BME280;7922;43.622;1.476;2023-11-19T08:33:53;100988.00;;;8.90;100.00
15646;BME280;7922;43.622;1.476;2023-11-19T08:36:19;100994.88;;;8.99;99.84
15646;BME280;7922;43.622;1.476;2023-11-19T08:38:44;100976.44;;;8.96;99.45
15646;BME280;7922;43.622;1.476;2023-11-19T08:41:09;100998.88;;;9.19;99.37
15646;BME280;7922;43.622;1.476;2023-11-19T08:43:34;100953.34;;;9.06;99.13
15646;BME280;7922;43.622;1.476;2023-11-19T08:46:00;100998.59;;;9.32;99.16
15646;BME280;7922;43.622;1.476;2023-11-19T08:48:25;100992.25;;;9.41;98.67
15646;BME280;7922;43.622;1.476;2023-11-19T08:50:50;100946.63;;;9.31;98.37
15646;BME280;7922;43.622;1.476;2023-11-19T08:53:15;100974.41;;;9.51;98.37
15646;BME280;7922;43.622;1.476;2023-11-19T08:55:41;100995.25;;;9.64;98.24
15646;BME280;7922;43.622;1.476;2023-11-19T08:58:06;100989.78;;;9.74;97.61
15646;BME280;7922;43.622;1.476;2023-11-19T09:00:31;100980.81;;;9.79;97.50
15646;BME280;7922;43.622;1.476;2023-11-19T09:02:57;100950.97;;;9.73;96.97
15646;BME280;7922;43.622;1.476;2023-11-19T09:05:22;100972.59;;;9.92;96.64
15646;BME280;7922;43.622;1.476;2023-11-19T09:07:47;100966.34;;;9.94;96.49
15646;BME280;7922;43.622;1.476;2023-11-19T09:10:12;100986.22;;;10.12;96.18
15646;BME280;7922;43.622;1.476;2023-11-19T09:12:38;100992.97;;;10.24;95.39
15646;BME280;7922;43.622;1.476;2023-11-19T09:15:03;100983.28;;;10.24;95.26
15646;BME280;7922;43.622;1.476;2023-11-19T09:17:28;100987.34;;;10.39;94.78
15646;BME280;7922;43.622;1.476;2023-11-19T09:19:54;100983.66;;;10.45;94.38
15646;BME280;7922;43.622;1.476;2023-11-19T09:22:19;100995.63;;;10.59;94.20
15646;BME280;7922;43.622;1.476;2023-11-19T09:24:44;100957.16;;;10.45;94.02
15646;BME280;7922;43.622;1.476;2023-11-19T09:27:10;100979.44;;;10.70;93.41
15646;BME280;7922;43.622;1.476;2023-11-19T09:29:35;100986.19;;;10.82;93.07
15646;BME280;7922;43.622;1.476;2023-11-19T09:32:00;100964.38;;;10.72;92.64
15646;BME280;7922;43.622;1.476;2023-11-19T09:34:25;100986.69;;;10.96;92.60
15646;BME280;7922;43.622;1.476;2023-11-19T09:36:51;100982.94;;;11.03;92.69
15646;BME280;7922;43.622;1.476;2023-11-19T09:39:16;100950.34;;;11.00;92.06
15646;BME280;7922;43.622;1.476;2023-11-19T09:41:41;100954.34;;;11.15;91.63
15646;BME280;7922;43.622;1.476;2023-11-19T09:44:08;100981.31;;;11.30;92.02
15646;BME280;7922;43.622;1.476;2023-11-19T09:46:34;100984.66;;;11.36;92.27
15646;BME280;7922;43.622;1.476;2023-11-19T09:49:02;100982.72;;;11.42;91.51
15646;BME280;7922;43.622;1.476;2023-11-19T09:51:28;100955.41;;;11.39;91.57
15646;BME280;7922;43.622;1.476;2023-11-19T09:53:53;100994.38;;;11.66;91.45
15646;BME280;7922;43.622;1.476;2023-11-19T09:56:19;100971.28;;;11.68;90.52
15646;BME280;7922;43.622;1.476;2023-11-19T09:58:54;100983.13;;;11.88;90.28
15646;BME280;7922;43.622;1.476;2023-11-19T10:01:19;100966.28;;;11.89;90.11
15646;BME280;7922;43.622;1.476;2023-11-19T10:03:46;100968.69;;;11.96;90.64
15646;BME280;7922;43.622;1.476;2023-11-19T10:06:12;100973.56;;;12.09;89.96
15646;BME280;7922;43.622;1.476;2023-11-19T10:08:40;100975.19;;;12.14;91.23
15646;BME280;7922;43.622;1.476;2023-11-19T10:11:07;100965.22;;;12.21;90.74
15646;BME280;7922;43.622;1.476;2023-11-19T10:13:34;100959.59;;;12.30;90.42
15646;BME280;7922;43.622;1.476;2023-11-19T10:16:04;100987.16;;;12.52;89.60
15646;BME280;7922;43.622;1.476;2023-11-19T10:18:29;100946.00;;;12.39;89.46
15646;BME280;7922;43.622;1.476;2023-11-19T10:20:55;100964.13;;;12.53;89.46
15646;BME280;7922;43.622;1.476;2023-11-19T10:23:20;100927.41;;;12.39;89.16
15646;BME280;7922;43.622;1.476;2023-11-19T10:25:46;100964.66;;;12.63;89.43
15646;BME280;7922;43.622;1.476;2023-11-19T10:28:11;100939.22;;;12.56;89.32
15646;BME280;7922;43.622;1.476;2023-11-19T10:30:36;100934.75;;;12.56;89.49
15646;BME280;7922;43.622;1.476;2023-11-19T10:33:11;100963.09;;;12.82;89.23
15646;BME280;7922;43.622;1.476;2023-11-19T10:35:51;100956.84;;;12.83;88.74
15646;BME280;7922;43.622;1.476;2023-11-19T10:38:16;100925.34;;;12.72;88.86
15646;BME280;7922;43.622;1.476;2023-11-19T10:40:42;100943.19;;;12.92;90.14
15646;BME280;7922;43.622;1.476;2023-11-19T10:43:08;100937.75;;;12.97;89.19
15646;BME280;7922;43.622;1.476;2023-11-19T10:45:37;100930.16;;;13.10;88.59
15646;BME280;7922;43.622;1.476;2023-11-19T10:48:03;100929.84;;;13.17;88.44
15646;BME280;7922;43.622;1.476;2023-11-19T10:50:29;100932.31;;;13.23;88.41
15646;BME280;7922;43.622;1.476;2023-11-19T10:52:57;100901.63;;;13.13;87.75
15646;BME280;7922;43.622;1.476;2023-11-19T10:55:26;100899.63;;;13.20;87.30
15646;BME280;7922;43.622;1.476;2023-11-19T10:57:52;100931.50;;;13.45;87.20
15646;BME280;7922;43.622;1.476;2023-11-19T11:00:22;100905.22;;;13.36;87.13
15646;BME280;7922;43.622;1.476;2023-11-19T11:02:50;100908.53;;;13.42;86.54
15646;BME280;7922;43.622;1.476;2023-11-19T11:05:21;100902.03;;;13.49;85.39
15646;BME280;7922;43.622;1.476;2023-11-19T11:07:49;100922.53;;;13.69;85.95
15646;BME280;7922;43.622;1.476;2023-11-19T11:10:16;100903.22;;;13.64;84.78
15646;BME280;7922;43.622;1.476;2023-11-19T11:12:43;100898.75;;;13.65;83.64
15646;BME280;7922;43.622;1.476;2023-11-19T11:15:10;100900.97;;;13.76;82.92
15646;BME280;7922;43.622;1.476;2023-11-19T11:17:36;100884.25;;;13.72;83.32
15646;BME280;7922;43.622;1.476;2023-11-19T11:20:04;100913.25;;;14.02;83.11
15646;BME280;7922;43.622;1.476;2023-11-19T11:22:39;100898.28;;;13.97;82.31
15646;BME280;7922;43.622;1.476;2023-11-19T11:25:28;100896.97;;;14.08;81.97
15646;BME280;7922;43.622;1.476;2023-11-19T11:31:08;100848.28;;;14.04;81.79
15646;BME280;7922;43.622;1.476;2023-11-19T11:33:45;100884.47;;;14.30;82.45
15646;BME280;7922;43.622;1.476;2023-11-19T11:36:21;100875.25;;;14.37;81.62
15646;BME280;7922;43.622;1.476;2023-11-19T11:38:50;100860.44;;;14.32;81.60
15646;BME280;7922;43.622;1.476;2023-11-19T11:41:20;100854.84;;;14.38;81.96
15646;BME280;7922;43.622;1.476;2023-11-19T11:43:46;100885.03;;;14.59;81.22
15646;BME280;7922;43.622;1.476;2023-11-19T11:49:01;100884.31;;;14.74;80.76
15646;BME280;7922;43.622;1.476;2023-11-19T11:51:59;100876.06;;;14.80;80.65
15646;BME280;7922;43.622;1.476;2023-11-19T11:54:26;100841.38;;;14.61;79.76
15646;BME280;7922;43.622;1.476;2023-11-19T12:02:08;100852.41;;;14.91;78.68
15646;BME280;7922;43.622;1.476;2023-11-19T12:04:34;100853.00;;;14.98;78.46
15646;BME280;7922;43.622;1.476;2023-11-19T12:07:14;100854.88;;;14.96;78.61
15646;BME280;7922;43.622;1.476;2023-11-19T12:09:41;100843.13;;;15.00;77.85
15646;BME280;7922;43.622;1.476;2023-11-19T12:12:18;100833.00;;;15.07;76.87
15646;BME280;7922;43.622;1.476;2023-11-19T12:20:05;100837.28;;;15.30;76.50
15646;BME280;7922;43.622;1.476;2023-11-19T12:22:30;100832.56;;;15.35;76.38
15646;BME280;7922;43.622;1.476;2023-11-19T12:24:56;100826.22;;;15.37;75.39
15646;BME280;7922;43.622;1.476;2023-11-19T12:27:21;100819.53;;;15.29;75.60
15646;BME280;7922;43.622;1.476;2023-11-19T12:29:47;100819.94;;;15.38;76.08
15646;BME280;7922;43.622;1.476;2023-11-19T12:32:14;100823.25;;;15.44;76.03
15646;BME280;7922;43.622;1.476;2023-11-19T12:34:40;100829.44;;;15.44;75.96
15646;BME280;7922;43.622;1.476;2023-11-19T12:37:05;100825.75;;;15.47;73.75
15646;BME280;7922;43.622;1.476;2023-11-19T12:39:31;100802.66;;;15.46;74.15
15646;BME280;7922;43.622;1.476;2023-11-19T12:41:57;100808.16;;;15.43;73.54
15646;BME280;7922;43.622;1.476;2023-11-19T12:44:23;100820.13;;;15.53;73.79
15646;BME280;7922;43.622;1.476;2023-11-19T12:47:08;100816.19;;;15.60;72.98
15646;BME280;7922;43.622;1.476;2023-11-19T12:49:33;100812.00;;;15.73;70.54
15646;BME280;7922;43.622;1.476;2023-11-19T12:51:59;100817.34;;;15.73;nan
15646;BME280;7922;43.622;1.476;2023-11-19T12:54:37;100797.25;;;15.64;70.04
15646;BME280;7922;43.622;1.476;2023-11-19T12:57:03;100791.06;;;15.64;69.48
15646;BME280;7922;43.622;1.476;2023-11-19T12:59:29;100813.50;;;15.79;68.28
15646;BME280;7922;43.622;1.476;2023-11-19T13:01:57;100799.38;;;15.77;69.17
15646;BME280;7922;43.622;1.476;2023-11-19T13:04:27;100777.53;;;15.69;68.97
15646;BME280;7922;43.622;1.476;2023-11-19T13:06:53;100790.25;;;15.81;69.25
15646;BME280;7922;43.622;1.476;2023-11-19T13:09:25;100791.91;;;15.83;69.38
15646;BME280;7922;43.622;1.476;2023-11-19T13:11:51;100767.72;;;15.69;69.57
15646;BME280;7922;43.622;1.476;2023-11-19T13:14:16;100737.63;;;15.66;69.11